Time;durP1;ratioP1;P1;durP2;ratioP2;P2;SDS_P1;SDS_P2;PMS_P1;PMS_P2;Temp;Humidity;BMP_temperature;BMP_pressure;BME280_temperature;BME280_humidity;BME280_pressure;Samples;Min_cycle;Max_cycle;Signal;HPM_P1;HPM_P2
2021/01/11 00:00:55;;;;;;;15.50;12.23;;;1.30;99.90;;;0.72;84.76;102282.59;4186135;28;20033;-69
2021/01/11 00:02:56;;;;;;;22.75;14.50;;;1.30;99.90;;;0.84;84.91;102280.38;4184933;28;20025;-69
2021/01/11 00:04:56;;;;;;;22.27;15.07;;;1.30;99.90;;;0.90;85.56;102264.56;4186167;28;20040;-69
2021/01/11 00:06:57;;;;;;;18.15;14.00;;;1.40;99.90;;;0.90;86.39;102267.16;4184890;28;20048;-69
2021/01/11 00:08:58;;;;;;;21.58;14.43;;;1.50;99.90;;;0.88;87.06;102262.94;4185742;28;20108;-69
2021/01/11 00:10:59;;;;;;;20.67;14.43;;;1.50;99.90;;;0.92;87.62;102267.97;4184756;28;20021;-69
2021/01/11 00:13:00;;;;;;;20.90;15.68;;;1.50;99.90;;;0.96;88.01;102261.72;4184910;28;20033;-69
2021/01/11 00:15:01;;;;;;;22.10;14.25;;;1.50;99.90;;;1.01;87.99;102259.84;4201477;28;20024;-70
2021/01/11 00:17:02;;;;;;;19.75;14.13;;;1.60;99.90;;;1.01;88.45;102254.63;4186009;28;20396;-69
2021/01/11 00:19:03;;;;;;;19.63;14.30;;;1.50;99.90;;;1.11;87.87;102271.56;4185828;28;20036;-69
2021/01/11 00:21:05;;;;;;;19.77;13.95;;;1.60;99.90;;;0.97;86.78;102268.63;4184739;28;20137;-69
2021/01/11 00:23:06;;;;;;;18.05;12.63;;;1.50;99.90;;;0.82;88.08;102258.81;4186017;28;20094;-69
2021/01/11 00:25:08;;;;;;;20.40;14.25;;;1.50;99.90;;;0.78;88.28;102256.38;4184259;28;20033;-69
2021/01/11 00:27:08;;;;;;;19.23;13.90;;;1.40;99.90;;;0.93;87.07;102264.44;4185736;28;20488;-69
2021/01/11 00:29:09;;;;;;;20.20;13.35;;;1.40;99.90;;;1.00;86.75;102255.53;4185746;28;20082;-69
2021/01/11 00:31:11;;;;;;;19.42;13.85;;;1.40;99.90;;;0.91;86.13;102257.63;4185739;28;20029;-69
2021/01/11 00:33:12;;;;;;;21.17;14.38;;;1.30;99.90;;;0.86;86.54;102260.41;4184473;28;20091;-69
2021/01/11 00:35:13;;;;;;;17.27;12.43;;;1.30;99.90;;;0.89;86.25;102259.44;4185604;28;20484;-69
2021/01/11 00:37:13;;;;;;;18.08;13.27;;;1.30;99.90;;;0.88;85.65;102265.53;4184390;28;20174;-69
2021/01/11 00:39:14;;;;;;;18.60;13.55;;;1.30;99.90;;;0.69;87.08;102267.94;4184153;28;20032;-69
2021/01/11 00:41:22;;;;;;;20.23;15.43;;;1.20;99.90;;;0.86;86.96;102259.56;4184300;28;20029;-69
2021/01/11 00:43:23;;;;;;;20.77;15.18;;;1.20;99.90;;;1.12;87.04;102256.81;4184053;28;20150;-69
2021/01/11 00:45:24;;;;;;;19.73;14.65;;;1.70;99.90;;;1.13;86.85;102252.47;4184423;28;20029;-69
2021/01/11 00:47:25;;;;;;;19.33;13.57;;;1.50;99.90;;;1.06;88.07;102263.09;4185545;28;20032;-69
2021/01/11 00:49:27;;;;;;;20.77;14.10;;;1.50;99.90;;;1.15;87.19;102261.03;4185391;28;20028;-69
2021/01/11 00:51:28;;;;;;;21.02;14.70;;;1.50;99.90;;;1.18;86.59;102261.78;4184151;28;20025;-69
2021/01/11 00:53:28;;;;;;;20.38;13.95;;;1.50;99.90;;;1.06;86.48;102264.84;4185440;28;20029;-69
2021/01/11 00:55:29;;;;;;;19.52;14.02;;;1.60;99.90;;;0.86;87.50;102259.56;4185239;28;20047;-69
2021/01/11 00:57:30;;;;;;;19.77;13.55;;;1.40;99.90;;;0.71;88.18;102253.19;4184171;28;20063;-69
2021/01/11 00:59:31;;;;;;;18.42;12.98;;;1.40;99.90;;;0.85;87.56;102263.03;4184095;28;20083;-69
2021/01/11 01:01:32;;;;;;;21.05;14.02;;;1.30;99.90;;;1.02;86.08;102258.06;4167438;28;20041;-69
2021/01/11 01:03:34;;;;;;;20.45;13.30;;;1.30;99.90;;;0.92;86.69;102267.13;4185187;28;20511;-69
2021/01/11 01:05:35;;;;;;;19.33;13.52;;;1.40;99.90;;;0.78;86.46;102257.22;4183838;28;20040;-69
2021/01/11 01:07:44;;;;;;;19.10;12.50;;;1.30;99.90;;;0.97;85.15;102260.00;4185016;28;20394;-69
2021/01/11 01:09:44;;;;;;;18.60;12.50;;;1.30;99.90;;;0.93;85.23;102256.66;4187081;28;20036;-69
2021/01/11 01:11:45;;;;;;;17.92;12.95;;;2.00;99.90;;;0.74;86.28;102257.41;4167409;28;20090;-69
2021/01/11 01:13:48;;;;;;;18.58;13.27;;;1.30;99.90;;;0.74;86.87;102260.84;4183435;28;20032;-69
2021/01/11 01:15:49;;;;;;;19.83;13.98;;;1.20;99.90;;;0.89;87.21;102264.63;4184950;28;20028;-69
2021/01/11 01:17:50;;;;;;;19.50;12.57;;;1.30;99.90;;;0.93;86.71;102269.66;4185151;28;20472;-69
2021/01/11 01:19:51;;;;;;;17.27;13.50;;;1.30;99.90;;;0.74;87.49;102266.06;4184991;28;20104;-69
2021/01/11 01:21:52;;;;;;;22.92;13.85;;;1.20;99.90;;;0.51;87.87;102264.25;4183842;28;20048;-69
2021/01/11 01:23:53;;;;;;;19.38;13.23;;;1.20;99.90;;;0.51;88.63;102258.22;4183320;28;20112;-69
2021/01/11 01:25:54;;;;;;;22.10;15.10;;;1.10;99.90;;;0.61;88.59;102256.16;4183680;28;20029;-69
2021/01/11 01:27:55;;;;;;;20.40;13.85;;;1.10;99.90;;;0.70;87.72;102255.81;4184943;28;20043;-69
2021/01/11 01:29:56;;;;;;;23.65;16.48;;;1.10;99.90;;;0.85;86.56;102252.66;4183589;28;20411;-69
2021/01/11 01:31:57;;;;;;;21.67;14.70;;;1.20;99.90;;;0.91;86.30;102252.44;4200273;28;20086;-69
2021/01/11 01:33:58;;;;;;;20.70;14.27;;;1.20;99.90;;;0.78;87.07;102244.22;4183706;28;20041;-69
2021/01/11 01:35:59;;;;;;;21.15;14.63;;;1.20;99.90;;;0.80;87.53;102247.66;4184892;28;20032;-69
2021/01/11 01:38:00;;;;;;;25.67;16.35;;;1.20;99.90;;;0.88;87.13;102258.59;4183580;28;20423;-69
2021/01/11 01:40:00;;;;;;;23.67;16.58;;;1.20;99.90;;;0.90;85.71;102251.56;4184503;28;20025;-69
2021/01/11 01:42:01;;;;;;;24.48;16.55;;;1.30;99.90;;;0.86;85.68;102251.75;4166944;28;20062;-69
2021/01/11 01:44:02;;;;;;;25.58;17.05;;;1.60;99.90;;;0.83;84.68;102244.94;4184498;28;20064;-69
2021/01/11 01:46:05;;;;;;;24.05;16.55;;;1.20;99.90;;;0.77;84.83;102250.34;4184799;28;20029;-69
2021/01/11 01:48:08;;;;;;;23.27;16.17;;;1.20;99.90;;;0.73;85.13;102251.34;4183528;28;20033;-69
2021/01/11 01:50:11;;;;;;;23.88;15.25;;;1.10;99.90;;;0.77;85.13;102257.28;4183389;28;20028;-69
2021/01/11 01:52:12;;;;;;;25.48;16.25;;;1.10;99.90;;;0.78;84.05;102253.78;4183721;28;20017;-69
2021/01/11 01:54:13;;;;;;;23.02;15.45;;;1.10;99.90;;;0.77;84.11;102252.94;4183262;28;20033;-69
2021/01/11 01:56:16;;;;;;;24.33;16.70;;;1.20;99.90;;;0.73;84.02;102259.16;4183538;28;20100;-69
2021/01/11 01:58:18;;;;;;;23.30;16.25;;;1.10;99.90;;;0.63;84.91;102257.78;4183291;28;20447;-69
2021/01/11 02:00:20;;;;;;;22.85;16.73;;;1.10;99.90;;;0.77;83.82;102250.34;4183440;28;20032;-69
2021/01/11 02:02:21;;;;;;;21.52;14.80;;;1.10;99.90;;;0.85;83.47;102257.84;4183379;28;20028;-69
2021/01/11 02:04:22;;;;;;;21.67;14.80;;;1.10;99.90;;;0.82;83.11;102263.16;4166763;28;20113;-69
2021/01/11 02:06:28;;;;;;;22.13;15.52;;;1.20;99.90;;;0.66;84.52;102257.66;4183492;28;20044;-69
2021/01/11 02:08:44;;;;;;;19.85;14.10;;;1.10;99.90;;;0.69;84.02;102260.16;4183244;28;20021;-70
2021/01/11 02:11:21;;;;;;;20.17;14.38;;;1.10;99.90;;;0.61;83.94;102262.19;4183174;28;20112;-69
2021/01/11 02:13:45;;;;;;;20.02;13.82;;;1.00;99.90;;;0.57;84.25;102278.78;4177209;28;20108;-69
2021/01/11 02:16:08;;;;;;;25.95;17.02;;;1.00;99.90;;;0.52;84.33;102276.34;4184431;28;20399;-69
2021/01/11 02:18:15;;;;;;;23.15;14.02;;;1.00;99.90;;;0.48;84.66;102273.91;4184473;28;20029;-69
2021/01/11 02:21:00;;;;;;;22.67;15.55;;;0.90;99.90;;;0.56;84.21;102271.91;4166927;28;20057;-69
2021/01/11 02:23:45;;;;;;;22.00;14.02;;;1.00;99.90;;;0.44;85.51;102274.94;4184523;28;20021;-69
2021/01/11 02:26:30;;;;;;;25.65;16.17;;;0.90;99.90;;;0.46;85.21;102266.19;4184975;28;20083;-69
2021/01/11 02:29:23;;;;;;;20.52;14.70;;;0.90;99.90;;;0.45;85.53;102274.88;4186421;28;20025;-70
2021/01/11 02:31:25;;;;;;;18.42;13.48;;;1.00;99.90;;;0.46;85.57;102275.72;4178630;28;20025;-69
2021/01/11 02:33:29;;;;;;;19.42;14.63;;;0.90;99.90;;;0.42;85.96;102274.97;4186412;28;20037;-69
2021/01/11 02:35:34;;;;;;;21.92;14.52;;;0.90;99.90;;;0.46;85.43;102270.53;4186208;28;20025;-69
2021/01/11 02:37:37;;;;;;;;;;;0.90;99.90;;;0.51;85.44;102273.78;4186805;28;20033;-69
2021/01/11 02:39:40;;;;;;;21.35;14.27;;;0.90;99.90;;;0.51;85.03;102276.38;4185953;28;19972;-69
2021/01/11 02:41:41;;;;;;;19.60;14.43;;;0.90;99.90;;;0.52;84.53;102275.50;4186586;28;20021;-69
2021/01/11 02:43:42;;;;;;;20.83;14.85;;;0.90;99.90;;;0.52;84.92;102275.50;4187299;28;20051;-69
2021/01/11 02:45:43;;;;;;;19.65;14.48;;;1.00;99.90;;;0.60;84.36;102264.84;4186425;28;20396;-69
2021/01/11 02:48:22;;;;;;;21.63;15.55;;;1.00;99.90;;;0.56;83.90;102266.72;4186318;28;20099;-69
2021/01/11 02:50:26;;;;;;;20.98;13.35;;;1.00;99.90;;;0.63;83.88;102268.16;4187459;28;20024;-69
2021/01/11 02:52:41;;;;;;;19.58;13.50;;;1.00;99.90;;;0.49;84.60;102260.03;4187569;28;20025;-69
2021/01/11 02:54:54;;;;;;;21.27;13.63;;;0.90;99.90;;;0.47;85.98;102264.44;4185968;28;20059;-70
2021/01/11 02:57:35;;;;;;;19.50;13.70;;;0.90;99.90;;;0.36;86.70;102258.78;4186147;28;20045;-69
2021/01/11 02:59:50;;;;;;;23.85;13.65;;;1.00;99.90;;;0.51;86.62;102268.59;4186138;28;20033;-69
2021/01/11 03:01:59;;;;;;;19.85;13.90;;;1.00;99.90;;;0.62;85.19;102266.50;4186107;28;20021;-70
2021/01/11 03:04:01;;;;;;;23.08;14.85;;;1.00;99.90;;;0.42;86.38;102258.53;4186026;28;20029;-69
2021/01/11 03:06:02;;;;;;;23.02;15.50;;;1.00;99.90;;;0.33;87.17;102258.91;4187123;28;20031;-70
2021/01/11 03:08:03;;;;;;;19.63;14.43;;;0.90;99.90;;;0.20;87.57;102263.66;4187029;28;20133;-69
2021/01/11 03:10:05;;;;;;;20.00;14.40;;;0.90;99.90;;;0.29;88.07;102267.69;4169046;28;20064;-69
2021/01/11 03:12:08;;;;;;;21.15;14.98;;;0.90;99.90;;;0.26;89.04;102266.03;4186027;28;20054;-69
2021/01/11 03:14:09;;;;;;;20.98;14.68;;;0.90;99.90;;;0.40;89.13;102268.16;4185912;28;20029;-69
2021/01/11 03:16:10;;;;;;;21.05;13.55;;;0.90;99.90;;;0.38;88.89;102267.38;4185929;28;20096;-69
2021/01/11 03:18:11;;;;;;;23.48;15.85;;;1.00;99.90;;;0.32;89.12;102273.63;4187071;28;20090;-69
2021/01/11 03:20:13;;;;;;;22.27;14.20;;;1.00;99.90;;;0.37;89.61;102265.66;4187026;28;20078;-69
2021/01/11 03:22:14;;;;;;;22.90;15.20;;;1.00;99.90;;;0.61;88.67;102275.19;4185880;28;20082;-69
2021/01/11 03:24:20;;;;;;;23.55;15.50;;;1.10;99.90;;;0.64;88.48;102267.28;4186632;28;20040;-69
2021/01/11 03:26:25;;;;;;;20.75;14.80;;;1.20;99.90;;;0.80;87.42;102264.97;4185480;28;20021;-70
2021/01/11 03:28:25;;;;;;;21.05;14.05;;;1.40;99.90;;;0.85;87.42;102263.91;4185727;28;20067;-69
2021/01/11 03:30:26;;;;;;;18.52;13.80;;;1.30;99.90;;;0.78;87.35;102258.97;4186680;28;20025;-69
2021/01/11 03:32:27;;;;;;;18.63;14.63;;;1.70;99.90;;;0.86;87.07;102260.41;4185458;28;20021;-70
2021/01/11 03:34:28;;;;;;;21.27;14.82;;;1.40;99.90;;;0.92;87.12;102259.31;4186775;28;20409;-70
2021/01/11 03:36:29;;;;;;;18.67;14.38;;;1.40;99.90;;;0.96;87.33;102266.06;4185193;28;20029;-69
2021/01/11 03:38:30;;;;;;;19.33;13.95;;;1.50;99.90;;;0.90;87.41;102256.75;4185408;28;20524;-70
2021/01/11 03:40:31;;;;;;;21.42;14.02;;;1.50;99.90;;;0.95;87.08;102254.88;4185267;28;20033;-70
2021/01/11 03:42:35;;;;;;;21.05;13.63;;;1.30;99.90;;;1.09;87.00;102257.78;4185143;28;20029;-70
2021/01/11 03:44:36;;;;;;;;;;;1.60;99.90;;;1.08;86.03;102261.28;4185581;28;20041;-69
2021/01/11 03:46:37;;;;;;;18.77;13.27;;;1.60;99.90;;;1.11;84.72;102261.16;4201947;28;19969;-70
2021/01/11 03:48:38;;;;;;;20.60;13.88;;;1.60;99.90;;;1.04;85.11;102254.53;4186567;28;20105;-69
2021/01/11 03:50:39;;;;;;;18.88;13.65;;;1.70;99.90;;;1.08;85.10;102257.81;4168678;28;20120;-69
2021/01/11 03:52:40;;;;;;;20.08;14.18;;;1.40;99.90;;;1.13;85.39;102255.91;4186495;28;20040;-69
2021/01/11 03:54:41;;;;;;;16.60;12.63;;;1.70;99.90;;;1.17;84.81;102254.88;4184903;28;20108;-69
2021/01/11 03:56:42;;;;;;;17.52;13.43;;;1.70;99.90;;;1.19;85.62;102257.44;4186323;28;20028;-70
2021/01/11 03:58:42;;;;;;;19.80;13.52;;;2.40;99.90;;;1.16;85.36;102255.78;4186453;28;20021;-70
2021/01/11 04:00:43;;;;;;;18.90;13.95;;;1.80;99.90;;;1.10;85.20;102250.84;4185162;28;20021;-69
2021/01/11 04:02:44;;;;;;;19.63;13.90;;;1.80;99.90;;;1.08;85.33;102248.28;4186243;28;20044;-69
2021/01/11 04:04:45;;;;;;;17.60;13.95;;;1.80;99.90;;;1.11;85.70;102250.75;4184805;28;20029;-69
2021/01/11 04:06:46;;;;;;;18.52;13.02;;;1.50;99.90;;;1.27;85.69;102251.03;4185039;28;20400;-70
2021/01/11 04:08:48;;;;;;;17.90;13.45;;;1.90;99.90;;;1.21;85.78;102246.06;4185903;28;20061;-69
2021/01/11 04:10:49;;;;;;;19.33;14.73;;;1.90;99.90;;;1.27;86.43;102245.81;4185055;28;20052;-69
2021/01/11 04:12:50;;;;;;;21.00;14.20;;;2.00;99.90;;;1.30;87.14;102244.84;4185980;28;20025;-69
2021/01/11 04:14:51;;;;;;;21.38;14.98;;;2.00;99.90;;;1.24;87.19;102237.28;4186135;28;20056;-69
2021/01/11 04:16:53;;;;;;;23.40;15.27;;;2.00;99.90;;;1.31;87.36;102243.94;4184930;28;20055;-69
2021/01/11 04:18:54;;;;;;;21.67;15.43;;;2.00;99.90;;;1.34;87.23;102236.88;4186050;28;20028;-69
2021/01/11 04:20:55;;;;;;;21.98;15.52;;;2.10;99.90;;;1.46;87.15;102240.75;4185882;28;20028;-69
2021/01/11 04:22:57;;;;;;;18.60;14.38;;;2.20;99.90;;;1.55;86.68;102235.19;4186049;28;20029;-69
2021/01/11 04:24:58;;;;;;;22.17;16.23;;;2.20;99.90;;;1.66;86.67;102243.38;4184294;28;20025;-69
2021/01/11 04:26:59;;;;;;;23.48;15.70;;;2.30;99.90;;;1.55;86.97;102236.00;4184737;28;20021;-69
2021/01/11 04:28:59;;;;;;;20.30;13.63;;;2.30;99.90;;;1.55;87.25;102241.19;4185708;28;20082;-69
2021/01/11 04:31:01;;;;;;;21.77;16.33;;;2.30;99.90;;;1.64;87.22;102237.41;4185911;28;20051;-69
2021/01/11 04:33:02;;;;;;;23.60;15.63;;;2.40;99.90;;;1.63;87.43;102228.75;4185786;28;20028;-69
2021/01/11 04:35:09;;;;;;;23.02;14.73;;;2.40;99.90;;;1.75;87.03;102226.56;4184559;28;20061;-69
2021/01/11 04:37:10;;;;;;;20.65;14.75;;;2.20;99.90;;;1.92;85.71;102243.16;4184409;28;20029;-69
2021/01/11 04:39:11;;;;;;;21.05;15.32;;;2.40;99.90;;;1.90;86.19;102246.72;4185448;28;20031;-69
2021/01/11 04:41:13;;;;;;;22.48;15.50;;;2.50;99.90;;;1.83;86.13;102225.31;4185701;28;20033;-69
2021/01/11 04:43:16;;;;;;;21.58;15.75;;;2.50;99.90;;;1.94;85.83;102243.91;4185521;28;20048;-69
2021/01/11 04:45:19;;;;;;;22.23;15.68;;;2.60;99.90;;;2.03;85.49;102248.75;4185457;28;20400;-69
2021/01/11 04:47:20;;;;;;;24.38;15.57;;;2.60;99.90;;;2.25;83.18;102253.88;4184397;28;20029;-69
2021/01/11 04:49:21;;;;;;;22.15;13.98;;;3.10;99.90;;;2.10;83.19;102251.94;4184782;28;20021;-69
2021/01/11 04:51:22;;;;;;;22.90;13.90;;;2.70;99.90;;;2.01;84.18;102250.56;4184295;28;20024;-69
2021/01/11 04:53:25;;;;;;;19.13;13.35;;;2.60;99.90;;;2.10;83.88;102257.13;4184064;28;20076;-69
2021/01/11 04:55:26;;;;;;;18.13;14.25;;;2.70;99.90;;;2.00;82.96;102248.88;4216937;28;20058;-69
2021/01/11 04:57:33;;;;;;;19.92;13.65;;;2.60;99.90;;;1.76;82.74;102246.47;4184314;28;20029;-69
2021/01/11 04:59:36;;;;;;;19.40;13.68;;;2.50;99.90;;;1.65;84.30;102246.88;4184112;28;20028;-69
2021/01/11 05:01:40;;;;;;;16.65;13.55;;;2.40;99.90;;;1.74;84.54;102246.50;4183868;28;20028;-70
2021/01/11 05:03:41;;;;;;;19.33;14.27;;;2.40;99.90;;;1.59;84.77;102241.94;4184068;28;20036;-70
2021/01/11 05:05:46;;;;;;;20.15;14.40;;;2.40;99.90;;;1.57;85.21;102244.59;4184119;28;20029;-69
2021/01/11 05:07:47;;;;;;;17.55;14.27;;;2.30;99.90;;;1.81;85.08;102239.31;4184156;28;20027;-69
2021/01/11 05:09:48;;;;;;;20.20;13.75;;;2.40;99.90;;;1.68;84.93;102241.56;4172820;28;20476;-69
2021/01/11 05:11:49;;;;;;;19.75;14.52;;;2.40;99.90;;;1.73;85.05;102249.19;4184089;28;20025;-69
2021/01/11 05:13:50;;;;;;;20.23;15.02;;;2.40;99.90;;;1.80;84.74;102246.25;4200531;28;20021;-69
2021/01/11 05:15:51;;;;;;;18.00;15.43;;;2.40;99.90;;;2.07;84.71;102252.06;4167334;28;20423;-69
2021/01/11 05:17:52;;;;;;;20.35;14.05;;;2.50;99.90;;;1.81;86.10;102245.34;4185289;28;20032;-69
2021/01/11 05:20:06;;;;;;;19.88;14.32;;;2.60;99.90;;;1.99;86.53;102255.00;4184032;28;20033;-69
2021/01/11 05:22:09;;;;;;;18.13;14.13;;;2.60;99.90;;;1.99;86.81;102247.19;4200385;28;20032;-69
2021/01/11 05:24:40;;;;;;;22.15;14.85;;;2.70;99.90;;;2.08;85.32;102246.81;4166999;28;20032;-69
2021/01/11 05:26:41;;;;;;;18.33;13.82;;;2.70;99.90;;;2.05;84.97;102246.94;4185131;28;20021;-70
2021/01/11 05:28:42;;;;;;;20.98;14.98;;;2.60;99.90;;;1.86;85.76;102239.94;4185072;28;20037;-69
2021/01/11 05:30:44;;;;;;;18.65;13.90;;;2.60;99.90;;;1.90;86.52;102246.72;4184556;28;20040;-69
2021/01/11 05:32:45;;;;;;;19.83;14.07;;;2.60;99.90;;;2.03;85.60;102248.75;4183696;28;20558;-69
2021/01/11 05:34:50;;;;;;;16.60;13.15;;;2.60;99.90;;;1.95;85.40;102244.78;4183882;28;20036;-69
2021/01/11 05:36:52;;;;;;;18.77;13.60;;;2.60;99.90;;;1.94;85.63;102241.31;4183645;28;20040;-69
2021/01/11 05:38:53;;;;;;;21.55;15.30;;;2.70;99.90;;;2.04;86.03;102249.59;4183518;28;20416;-69
2021/01/11 05:40:53;;;;;;;22.08;14.98;;;2.70;99.90;;;2.12;84.80;102242.31;4167145;28;20083;-69
2021/01/11 05:42:58;;;;;;;19.02;14.63;;;2.70;99.90;;;1.94;86.10;102245.69;4183571;28;20052;-69
2021/01/11 05:45:12;;;;;;;;;;;2.70;99.90;;;2.20;85.44;102245.44;4183917;28;20036;-69
2021/01/11 05:47:13;;;;;;;17.20;13.35;;;2.70;99.90;;;2.28;84.67;102248.53;4184845;28;19908;-69
2021/01/11 05:49:15;;;;;;;19.67;13.70;;;2.80;99.90;;;2.13;86.26;102250.06;4184817;28;20554;-70
2021/01/11 05:51:24;;;;;;;21.58;14.95;;;2.70;99.90;;;2.18;85.77;102242.88;4184781;28;20086;-69
2021/01/11 05:53:26;;;;;;;17.48;14.00;;;2.80;99.90;;;2.26;84.59;102250.38;4183462;28;20029;-69
2021/01/11 05:55:32;;;;;;;19.02;13.55;;;2.80;99.90;;;2.29;83.95;102238.97;4199985;28;20033;-69
2021/01/11 05:57:33;;;;;;;19.25;14.38;;;2.90;99.90;;;2.06;84.61;102248.59;4183535;28;20108;-69
2021/01/11 05:59:37;;;;;;;19.13;14.85;;;2.80;99.90;;;2.00;84.85;102248.88;4184965;28;20025;-69
2021/01/11 06:01:38;;;;;;;17.13;12.80;;;2.70;99.90;;;2.04;85.65;102250.44;4188139;28;20514;-69
2021/01/11 06:03:40;;;;;;;18.58;13.82;;;2.70;99.90;;;2.17;85.84;102240.38;4188012;28;20045;-69
2021/01/11 06:05:41;;;;;;;17.45;13.65;;;2.80;99.90;;;2.20;84.91;102250.63;4188090;28;20017;-69
2021/01/11 06:07:47;;;;;;;19.00;14.65;;;2.80;99.90;;;2.12;85.37;102248.34;4186600;28;20029;-69
2021/01/11 06:09:48;;;;;;;22.27;15.48;;;2.70;99.90;;;2.24;84.70;102253.03;4186430;28;20035;-69
2021/01/11 06:11:50;;;;;;;17.70;13.70;;;2.30;99.90;;;1.95;85.30;102253.44;4188039;28;20028;-69
2021/01/11 06:13:58;;;;;;;19.15;13.68;;;2.70;99.90;;;2.00;86.77;102254.06;4186751;28;20094;-69
2021/01/11 06:16:01;;;;;;;21.27;14.55;;;2.70;99.90;;;1.90;87.35;102246.72;4187813;28;20040;-69
2021/01/11 06:18:06;;;;;;;23.00;14.85;;;2.70;99.90;;;2.14;85.61;102248.31;4186837;28;20024;-70
2021/01/11 06:20:17;;;;;;;22.05;15.63;;;2.70;99.90;;;2.21;85.93;102247.97;4186651;28;20496;-70
2021/01/11 06:22:20;;;;;;;21.48;15.75;;;2.80;99.90;;;2.12;85.98;102237.94;4186543;28;20021;-69
2021/01/11 06:24:21;;;;;;;22.27;16.05;;;2.80;99.90;;;2.16;86.04;102244.72;4187557;28;20117;-69
2021/01/11 06:26:25;;;;;;;22.77;15.75;;;2.80;99.90;;;2.28;86.42;102247.69;4186547;28;20408;-69
2021/01/11 06:28:35;;;;;;;22.75;15.40;;;2.90;99.90;;;2.25;86.13;102238.25;4187889;28;20068;-69
2021/01/11 06:30:40;;;;;;;21.63;15.65;;;3.00;99.90;;;2.27;86.04;102241.63;4186331;28;20112;-70
2021/01/11 06:32:41;;;;;;;22.25;14.88;;;2.90;99.90;;;2.33;85.47;102240.56;4186319;28;20398;-70
2021/01/11 06:34:42;;;;;;;20.70;14.43;;;2.90;99.90;;;2.33;85.81;102238.78;4186525;28;20039;-69
2021/01/11 06:36:43;;;;;;;21.95;15.68;;;2.90;99.90;;;2.44;84.99;102243.53;4186421;28;20466;-69
2021/01/11 06:38:47;;;;;;;18.27;14.65;;;3.00;99.90;;;2.45;84.76;102235.63;4186087;28;20024;-69
2021/01/11 06:41:11;;;;;;;21.38;15.07;;;3.00;99.90;;;2.38;85.01;102229.03;4186389;28;20040;-69
2021/01/11 06:43:13;;;;;;;20.40;14.20;;;3.00;99.90;;;2.43;84.36;102236.63;4186203;28;20144;-69
2021/01/11 06:45:41;;;;;;;24.23;15.77;;;3.00;99.90;;;2.21;84.59;102245.34;4186111;28;20033;-69
2021/01/11 06:47:42;;;;;;;20.35;15.25;;;2.90;99.90;;;1.97;86.25;102237.78;4187504;28;20575;-69
2021/01/11 06:49:46;;;;;;;21.95;15.95;;;2.90;99.90;;;2.15;87.42;102232.59;4186188;28;20029;-69
2021/01/11 06:51:57;;;;;;;22.27;16.50;;;2.90;99.90;;;2.17;87.46;102246.41;4186138;28;20021;-69
2021/01/11 06:54:15;;;;;;;21.33;14.73;;;2.90;99.90;;;2.17;86.68;102235.16;4170147;28;20623;-69
2021/01/11 06:56:16;;;;;;;26.33;14.98;;;2.90;99.90;;;2.26;86.14;102239.13;4186123;28;20031;-69
2021/01/11 06:58:23;;;;;;;19.00;14.80;;;2.60;99.90;;;2.27;85.87;102230.41;4187306;28;20029;-69
2021/01/11 07:00:44;;;;;;;20.67;14.32;;;2.90;99.90;;;2.14;86.44;102228.31;4185854;28;20031;-70
2021/01/11 07:02:45;;;;;;;22.58;15.55;;;2.90;99.90;;;2.16;86.98;102231.69;4185931;28;20039;-69
2021/01/11 07:04:47;;;;;;;19.88;15.00;;;2.90;99.90;;;2.19;87.31;102228.13;4185708;28;20036;-69
2021/01/11 07:06:48;;;;;;;19.50;14.45;;;2.90;99.90;;;2.31;86.47;102231.94;4185736;28;20091;-69
2021/01/11 07:08:50;;;;;;;19.13;14.48;;;2.90;99.90;;;2.20;87.26;102225.47;4183437;28;20021;-70
2021/01/11 07:11:03;;;;;;;19.60;14.10;;;2.90;99.90;;;2.18;87.71;102229.06;4185720;28;20055;-70
2021/01/11 07:13:19;;;;;;;20.48;14.45;;;2.90;99.90;;;2.28;87.06;102230.31;4185178;28;20424;-70
2021/01/11 07:15:20;;;;;;;19.60;14.57;;;2.90;99.90;;;2.37;86.36;102231.69;4187008;28;20059;-69
2021/01/11 07:17:41;;;;;;;21.20;14.70;;;3.00;99.90;;;2.20;87.10;102228.06;4186890;28;20029;-69
2021/01/11 07:19:43;;;;;;;18.92;14.20;;;3.00;99.90;;;2.15;87.58;102227.41;4185527;28;20040;-70
2021/01/11 07:21:49;;;;;;;19.20;14.68;;;3.00;99.90;;;2.37;87.01;102236.88;4185689;28;20033;-70
2021/01/11 07:23:52;;;;;;;20.45;14.80;;;3.00;99.90;;;2.31;87.65;102226.72;4185294;28;20048;-69
2021/01/11 07:25:57;;;;;;;21.15;14.45;;;3.00;99.90;;;2.37;87.50;102226.47;4185472;28;20028;-70
2021/01/11 07:28:02;;;;;;;19.45;15.63;;;3.10;99.90;;;2.54;86.29;102235.22;4185513;28;20059;-70
2021/01/11 07:30:03;;;;;;;18.88;14.20;;;3.10;99.90;;;2.45;85.92;102227.00;4185518;28;20484;-70
2021/01/11 07:32:04;;;;;;;18.17;13.75;;;3.10;99.90;;;2.48;85.34;102232.06;4186631;28;20563;-70
2021/01/11 07:34:18;;;;;;;20.27;12.90;;;3.10;99.90;;;2.37;86.58;102229.06;4185627;28;20495;-70
2021/01/11 07:36:21;;;;;;;17.40;13.07;;;3.10;99.90;;;2.36;87.19;102232.59;4185785;28;20025;-70
2021/01/11 07:38:22;;;;;;;18.85;13.82;;;3.10;99.90;;;2.38;86.61;102225.56;4185185;28;20112;-70
2021/01/11 07:40:23;;;;;;;17.65;13.55;;;3.10;99.90;;;2.46;86.71;102228.66;4186140;28;20032;-70
2021/01/11 07:42:24;;;;;;;18.63;14.60;;;3.10;99.90;;;2.46;86.81;102239.09;4185315;28;20033;-70
2021/01/11 07:44:27;;;;;;;19.13;13.52;;;3.30;99.90;;;2.43;87.12;102236.63;4185091;28;20104;-70
2021/01/11 07:46:28;;;;;;;17.45;13.80;;;3.20;99.90;;;2.41;87.16;102243.66;4185309;28;20495;-70
2021/01/11 07:48:29;;;;;;;19.90;16.02;;;3.10;99.90;;;2.54;86.83;102229.19;4185986;28;20025;-70
2021/01/11 07:50:30;;;;;;;21.17;14.25;;;3.10;99.90;;;2.50;87.00;102238.91;4180346;28;20500;-70
2021/01/11 07:52:31;;;;;;;22.55;15.20;;;3.20;99.90;;;2.45;87.28;102240.03;4178036;28;20031;-70
2021/01/11 07:54:33;;;;;;;21.65;15.35;;;2.60;99.90;;;2.45;87.36;102227.81;4186012;28;20032;-70
2021/01/11 07:56:34;;;;;;;19.25;15.20;;;3.20;99.90;;;2.56;86.63;102232.56;4184834;28;20041;-70
2021/01/11 07:58:39;;;;;;;19.75;14.40;;;3.20;99.90;;;2.53;86.99;102236.16;4185013;28;20020;-70
2021/01/11 08:00:39;;;;;;;21.10;15.63;;;3.20;99.90;;;2.65;86.76;102232.16;4185156;28;20120;-70
2021/01/11 08:02:45;;;;;;;25.65;17.13;;;3.30;99.90;;;2.63;86.87;102239.16;4184718;28;20026;-69
2021/01/11 08:04:46;;;;;;;23.73;17.05;;;3.30;99.90;;;2.65;86.69;102245.19;4184781;28;20443;-69
2021/01/11 08:06:55;;;;;;;22.50;17.35;;;2.30;99.90;;;2.67;86.84;102240.75;4185187;28;20572;-70
2021/01/11 08:08:58;;;;;;;19.58;14.50;;;3.40;99.90;;;2.76;85.60;102240.31;4178393;28;20088;-70
2021/01/11 08:11:04;;;;;;;58.67;49.42;;;4.00;99.90;;;2.78;85.70;102251.50;4184676;28;20132;-70
2021/01/11 08:13:08;;;;;;;26.33;22.15;;;3.40;99.90;;;2.77;86.65;102245.47;4184728;28;20064;-70
2021/01/11 08:15:10;;;;;;;23.30;18.85;;;3.50;99.90;;;2.87;86.61;102248.50;4184535;28;20030;-70
2021/01/11 08:17:22;;;;;;;29.38;23.67;;;4.30;99.90;;;3.05;88.18;102255.47;4185860;28;20036;-71
2021/01/11 08:19:23;;;;;;;22.83;15.20;;;3.60;99.90;;;2.97;87.59;102265.41;4185651;28;20108;-71
2021/01/11 08:21:24;;;;;;;26.52;17.13;;;3.70;99.90;;;2.97;86.80;102252.38;4185782;28;20037;-71
2021/01/11 08:23:25;;;;;;;21.35;14.55;;;3.70;99.90;;;2.93;86.64;102252.59;4184597;28;20079;-71
2021/01/11 08:25:26;;;;;;;22.25;14.73;;;3.70;99.90;;;2.93;85.83;102245.59;4184299;28;20504;-71
2021/01/11 08:27:36;;;;;;;22.33;14.02;;;3.70;99.90;;;3.06;85.71;102264.13;4184474;28;20025;-71
2021/01/11 08:29:40;;;;;;;19.58;13.77;;;3.70;99.90;;;3.08;85.45;102268.34;4185663;28;20021;-72
2021/01/11 08:31:44;;;;;;;19.35;12.63;;;3.80;99.90;;;3.13;84.82;102263.78;4184477;28;20021;-72
2021/01/11 08:33:46;;;;;;;14.10;11.48;;;3.80;99.90;;;3.06;84.89;102258.91;4184223;28;20021;-71
2021/01/11 08:35:47;;;;;;;16.15;11.35;;;3.80;99.90;;;3.04;84.91;102256.41;4184505;28;20078;-72
2021/01/11 08:37:49;;;;;;;14.27;11.45;;;3.80;99.90;;;3.20;84.05;102257.34;4184385;28;20037;-72